createdAt,value
2024-03-02T00:00:28.794Z,81.35
2024-03-02T00:02:55.494Z,81.17
2024-03-02T00:05:23.346Z,81.38
2024-03-02T00:07:57.659Z,81.39
2024-03-02T00:10:30.751Z,81.74
2024-03-02T00:12:58.145Z,82.25
2024-03-02T00:15:52.777Z,82.43
2024-03-02T00:18:26.652Z,82.35
2024-03-02T00:20:57.816Z,82.59
2024-03-02T00:23:25.810Z,82.77
2024-03-02T00:25:57.159Z,82.98
2024-03-02T00:28:25.859Z,83.05
2024-03-02T00:30:55.195Z,83.60
2024-03-02T00:33:22.468Z,83.53
2024-03-02T00:35:50.385Z,83.81
2024-03-02T00:38:17.449Z,83.44
2024-03-02T00:40:44.310Z,83.42
2024-03-02T00:43:52.354Z,83.65
2024-03-02T00:46:20.562Z,84.11
2024-03-02T00:48:57.511Z,84.25
2024-03-02T00:51:26.090Z,83.70
2024-03-02T00:53:56.934Z,84.11
2024-03-02T00:56:24.898Z,84.79
2024-03-02T00:58:53.177Z,84.74
2024-03-02T01:01:20.920Z,84.28
2024-03-02T01:03:47.912Z,84.62
2024-03-02T01:06:15.072Z,84.49
2024-03-02T01:08:41.609Z,84.74
2024-03-02T01:11:08.269Z,84.38
2024-03-02T01:13:35.014Z,84.41
2024-03-02T01:16:02.319Z,84.54
2024-03-02T01:18:29.078Z,84.53
2024-03-02T01:20:58.561Z,84.77
2024-03-02T01:23:25.412Z,85.14
2024-03-02T01:25:52.952Z,84.75
2024-03-02T01:28:20.168Z,84.92
2024-03-02T01:30:46.684Z,84.96
2024-03-02T01:33:13.481Z,85.75
2024-03-02T01:35:40.123Z,85.95
2024-03-02T01:38:09.537Z,86.05
2024-03-02T01:40:37.117Z,85.76
2024-03-02T01:43:05.158Z,85.83
2024-03-02T01:45:33.113Z,85.87
2024-03-02T01:47:59.793Z,86.11
2024-03-02T01:50:32.156Z,86.43
2024-03-02T01:52:59.898Z,86.20
2024-03-02T01:55:27.110Z,86.12
2024-03-02T01:57:55.375Z,85.81
2024-03-02T02:00:23.028Z,85.97
2024-03-02T02:02:49.963Z,85.67
2024-03-02T02:05:17.099Z,86.08
2024-03-02T02:07:46.420Z,86.48
2024-03-02T02:10:13.020Z,86.40
2024-03-02T02:12:39.676Z,86.63
2024-03-02T02:15:27.599Z,86.62
2024-03-02T02:17:55.532Z,86.70
2024-03-02T02:20:22.186Z,86.86
2024-03-02T02:23:14.943Z,86.94
2024-03-02T02:25:41.700Z,86.63
2024-03-02T02:28:08.167Z,87.09
2024-03-02T02:30:34.910Z,86.97
2024-03-02T02:33:01.974Z,87.11
2024-03-02T02:35:29.004Z,87.19
2024-03-02T02:37:57.825Z,86.96
2024-03-02T02:40:24.872Z,86.52
2024-03-02T02:42:53.488Z,85.94
2024-03-02T02:45:21.913Z,85.60
2024-03-02T02:47:48.656Z,86.02
2024-03-02T02:50:15.467Z,85.84
2024-03-02T02:52:43.556Z,85.59
2024-03-02T02:55:13.124Z,85.24
2024-03-02T02:57:44.271Z,84.43
2024-03-02T03:00:18.295Z,84.42
2024-03-02T03:02:48.167Z,83.99
2024-03-02T03:05:15.970Z,83.94
2024-03-02T03:07:45.056Z,83.84
2024-03-02T03:10:12.182Z,83.28
2024-03-02T03:12:39.048Z,83.66
2024-03-02T03:15:07.847Z,83.50
2024-03-02T03:17:34.761Z,83.51
2024-03-02T03:20:02.182Z,83.46
2024-03-02T03:22:28.718Z,83.52
2024-03-02T03:24:55.261Z,84.13
2024-03-02T03:27:21.835Z,84.38
2024-03-02T03:29:48.314Z,84.33
2024-03-02T03:32:15.163Z,85.29
2024-03-02T03:34:42.175Z,85.95
2024-03-02T03:37:08.773Z,86.01
2024-03-02T03:39:36.961Z,85.13
2024-03-02T03:42:03.972Z,84.83
2024-03-02T03:44:30.565Z,85.27
2024-03-02T03:46:57.076Z,85.02
2024-03-02T03:49:23.568Z,85.20
2024-03-02T03:51:50.555Z,85.39
2024-03-02T03:54:17.109Z,85.53
2024-03-02T03:56:43.608Z,85.53
2024-03-02T03:59:10.097Z,85.65
2024-03-02T04:01:36.633Z,85.35
2024-03-02T04:04:04.682Z,85.86
2024-03-02T04:06:31.542Z,86.10
2024-03-02T04:08:58.174Z,86.29
2024-03-02T04:11:24.791Z,86.76
2024-03-02T04:13:51.454Z,86.20
2024-03-02T04:16:18.668Z,85.94
2024-03-02T04:18:45.931Z,85.75
2024-03-02T04:21:12.752Z,85.82
2024-03-02T04:23:39.730Z,85.55
2024-03-02T04:26:06.627Z,85.87
2024-03-02T04:28:34.308Z,85.72
2024-03-02T04:31:00.963Z,85.50
2024-03-02T04:33:27.603Z,85.92
2024-03-02T04:35:54.240Z,86.07
2024-03-02T04:38:20.818Z,86.29
2024-03-02T04:40:47.411Z,86.09
2024-03-02T04:43:17.484Z,86.30
2024-03-02T04:45:44.129Z,86.09
2024-03-02T04:48:10.669Z,85.84
2024-03-02T04:50:37.117Z,85.81
2024-03-02T04:53:03.915Z,86.46
2024-03-02T04:55:30.403Z,86.25
2024-03-02T04:57:57.253Z,85.89
2024-03-02T05:00:24.090Z,85.82
2024-03-02T05:02:50.963Z,85.74
2024-03-02T05:05:17.645Z,85.69
2024-03-02T05:07:45.076Z,85.68
2024-03-02T05:10:15.480Z,86.13
2024-03-02T05:12:42.535Z,86.15
2024-03-02T05:15:11.158Z,86.15
2024-03-02T05:17:38.775Z,86.36
2024-03-02T05:20:09.244Z,86.34
2024-03-02T05:22:36.301Z,86.61
2024-03-02T05:25:03.721Z,86.31
2024-03-02T05:27:30.372Z,85.97
2024-03-02T05:29:57.149Z,86.19
2024-03-02T05:32:23.611Z,86.48
2024-03-02T05:34:51.764Z,85.89
2024-03-02T05:37:18.735Z,85.85
2024-03-02T05:39:45.434Z,85.60
2024-03-02T05:42:11.950Z,86.10
2024-03-02T05:44:38.510Z,85.97
2024-03-02T05:47:06.270Z,86.35
2024-03-02T05:49:32.741Z,86.18
2024-03-02T05:51:59.409Z,86.09
2024-03-02T05:54:26.074Z,86.02
2024-03-02T05:56:52.667Z,86.37
2024-03-02T05:59:19.730Z,86.06
2024-03-02T06:01:48.281Z,85.41
2024-03-02T06:04:15.464Z,85.85
2024-03-02T06:09:27.873Z,85.58
2024-03-02T06:11:55.217Z,85.63
2024-03-02T06:14:21.978Z,85.80
2024-03-02T06:16:48.501Z,86.15
2024-03-02T06:19:15.003Z,85.87
2024-03-02T06:21:41.984Z,86.04
2024-03-02T06:24:09.158Z,86.24
2024-03-02T06:26:36.147Z,86.16
2024-03-02T06:31:47.860Z,86.30
2024-03-02T06:34:14.516Z,85.44
2024-03-02T06:39:27.395Z,85.21
2024-03-02T06:44:42.973Z,85.32
2024-03-02T06:47:09.925Z,85.26
2024-03-02T06:49:37.138Z,85.29
2024-03-02T06:52:04.197Z,85.26
2024-03-02T07:27:21.769Z,84.41
2024-03-02T07:36:40.189Z,83.92
2024-03-02T08:26:47.496Z,83.27
2024-03-02T08:45:40.803Z,81.64
2024-03-02T08:48:09.548Z,82.27
2024-03-02T08:50:38.778Z,82.36
2024-03-02T08:53:08.253Z,81.68
2024-03-02T08:55:35.500Z,82.28
2024-03-02T08:58:02.673Z,82.03
2024-03-02T09:00:29.382Z,81.98
2024-03-02T09:02:55.888Z,81.87
2024-03-02T09:05:22.495Z,80.61
2024-03-02T09:07:49.070Z,80.92
2024-03-02T09:10:17.660Z,81.04
2024-03-02T09:12:44.383Z,80.97
2024-03-02T09:15:11.036Z,81.17
2024-03-02T09:17:37.610Z,79.65
2024-03-02T09:20:05.340Z,80.24
2024-03-02T09:22:32.035Z,81.03
2024-03-02T09:25:00.570Z,80.51
2024-03-02T09:27:27.314Z,80.14
2024-03-02T09:29:53.982Z,79.42
2024-03-02T09:32:20.484Z,79.71
2024-03-02T09:35:13.134Z,80.13
2024-03-02T09:37:39.637Z,79.19
2024-03-02T09:40:14.183Z,79.07
2024-03-02T09:42:41.660Z,79.22
2024-03-02T09:46:11.175Z,80.28
2024-03-02T09:53:39.093Z,78.86
2024-03-02T09:57:08.113Z,78.25
2024-03-02T09:59:45.100Z,77.08
2024-03-02T10:06:31.143Z,77.73
2024-03-02T10:09:04.089Z,77.53
2024-03-02T10:11:43.405Z,75.37
2024-03-02T10:17:50.668Z,73.97
2024-03-02T10:21:21.174Z,72.55
2024-03-02T10:24:09.757Z,72.98
2024-03-02T10:26:43.104Z,73.32
2024-03-02T10:29:13.334Z,73.91
2024-03-02T10:31:47.127Z,73.70
2024-03-02T10:34:14.801Z,72.26
2024-03-02T10:36:44.452Z,71.73
2024-03-02T10:39:11.046Z,72.34
2024-03-02T10:41:39.251Z,72.33
2024-03-02T10:44:10.379Z,71.80
2024-03-02T10:46:38.244Z,72.83
2024-03-02T10:49:08.453Z,72.40
2024-03-02T10:51:38.035Z,71.80
2024-03-02T10:54:05.835Z,71.63
2024-03-02T10:56:34.573Z,72.34
2024-03-02T10:59:24.026Z,71.45
2024-03-02T11:01:51.753Z,69.27
2024-03-02T11:04:20.663Z,67.78
2024-03-02T11:06:51.078Z,66.66
2024-03-02T11:09:21.052Z,66.01
2024-03-02T11:11:56.110Z,66.32
2024-03-02T11:14:25.523Z,67.71
2024-03-02T11:16:53.217Z,65.55
2024-03-02T11:19:20.686Z,65.48
2024-03-02T11:21:47.905Z,60.84
2024-03-02T11:24:39.529Z,60.64
2024-03-02T11:27:13.696Z,60.48
2024-03-02T11:29:44.533Z,60.35
2024-03-02T11:32:16.599Z,58.18
2024-03-02T11:34:46.418Z,54.54
2024-03-02T11:37:14.882Z,53.46
2024-03-02T11:39:45.444Z,48.93
2024-03-02T11:42:15.238Z,45.70
2024-03-02T11:44:47.623Z,46.90
2024-03-02T11:47:16.145Z,47.04
2024-03-02T11:49:47.505Z,50.94
2024-03-02T11:52:16.313Z,51.97
2024-03-02T11:54:48.161Z,53.77
2024-03-02T11:57:16.835Z,55.27
2024-03-02T11:59:44.578Z,56.31
2024-03-02T12:02:25.395Z,55.77
2024-03-02T12:04:52.571Z,55.87
2024-03-02T12:07:25.524Z,54.71
2024-03-02T12:10:03.356Z,55.30
2024-03-02T12:12:30.414Z,54.21
2024-03-02T12:14:57.283Z,53.37
2024-03-02T12:17:24.223Z,53.67
2024-03-02T12:19:50.775Z,53.98
2024-03-02T12:22:17.672Z,54.47
2024-03-02T12:24:46.605Z,54.16
2024-03-02T12:27:14.392Z,54.57
2024-03-02T12:29:41.169Z,55.28
2024-03-02T12:32:08.221Z,56.28
2024-03-02T12:34:35.027Z,57.86
2024-03-02T12:37:01.910Z,56.83
2024-03-02T12:39:29.018Z,56.62
2024-03-02T12:41:57.038Z,57.51
2024-03-02T12:44:23.619Z,58.01
2024-03-02T12:46:50.417Z,59.54
2024-03-02T12:49:17.684Z,59.05
2024-03-02T12:51:45.069Z,58.67
2024-03-02T12:54:12.114Z,59.44
2024-03-02T12:56:39.270Z,59.72
2024-03-02T12:59:06.737Z,58.84
2024-03-02T13:01:33.586Z,59.62
2024-03-02T13:04:00.464Z,60.05
2024-03-02T13:06:30.554Z,59.30
2024-03-02T13:08:57.086Z,58.75
2024-03-02T13:11:25.744Z,58.62
2024-03-02T13:13:52.727Z,57.56
2024-03-02T13:16:24.997Z,58.61
2024-03-02T13:18:57.122Z,60.09
2024-03-02T13:21:24.107Z,58.45
2024-03-02T13:23:50.775Z,58.84
2024-03-02T13:26:18.121Z,57.29
2024-03-02T13:28:44.763Z,57.96
2024-03-02T13:31:11.435Z,57.12
2024-03-02T13:33:38.034Z,57.45
2024-03-02T13:36:04.991Z,57.45
2024-03-02T13:38:31.738Z,56.44
2024-03-02T13:40:58.494Z,56.18
2024-03-02T13:43:25.523Z,56.57
2024-03-02T13:45:53.291Z,56.73
2024-03-02T13:48:20.721Z,57.08
2024-03-02T13:50:47.764Z,56.62
2024-03-02T13:53:15.619Z,55.86
2024-03-02T13:55:43.338Z,55.84
2024-03-02T13:58:10.918Z,55.43
2024-03-02T14:00:39.766Z,54.51
2024-03-02T14:03:09.997Z,52.40
2024-03-02T14:05:38.140Z,52.48
2024-03-02T14:08:05.375Z,50.97
2024-03-02T14:10:33.363Z,48.69
2024-03-02T14:13:00.010Z,48.70
2024-03-02T14:15:26.728Z,48.88
2024-03-02T14:17:55.123Z,45.20
2024-03-02T14:20:23.629Z,43.75
2024-03-02T14:22:50.783Z,44.26
2024-03-02T14:25:18.610Z,46.61
2024-03-02T14:30:16.860Z,46.35
2024-03-02T14:32:43.540Z,45.87
2024-03-02T14:35:11.402Z,46.22
2024-03-02T14:37:38.570Z,48.36
2024-03-02T14:40:07.646Z,47.69
2024-03-02T14:42:34.844Z,49.49
2024-03-02T14:45:01.588Z,47.75
2024-03-02T14:47:28.326Z,48.52
2024-03-02T14:49:54.983Z,48.84
2024-03-02T14:52:22.023Z,46.55
2024-03-02T14:54:48.674Z,44.44
2024-03-02T14:57:15.511Z,45.92
2024-03-02T14:59:42.290Z,48.88
2024-03-02T15:02:09.583Z,47.20
2024-03-02T15:04:36.651Z,45.87
2024-03-02T15:07:03.320Z,44.94
2024-03-02T15:09:29.896Z,47.34
2024-03-02T15:11:56.485Z,46.38
2024-03-02T15:14:23.216Z,46.93
2024-03-02T15:16:50.594Z,47.78
2024-03-02T15:19:17.471Z,49.43
2024-03-02T15:21:44.016Z,49.53
2024-03-02T15:24:10.580Z,51.11
2024-03-02T15:26:37.220Z,51.95
2024-03-02T15:29:03.969Z,51.60
2024-03-02T15:31:30.477Z,53.37
2024-03-02T15:33:58.291Z,52.97
2024-03-02T15:36:25.443Z,52.15
2024-03-02T15:38:52.009Z,51.50
2024-03-02T15:41:18.708Z,51.94
2024-03-02T15:43:45.535Z,52.67
2024-03-02T15:46:12.239Z,53.19
2024-03-02T15:48:38.865Z,54.03
2024-03-02T15:51:06.880Z,53.84
2024-03-02T15:53:33.982Z,53.81
2024-03-02T15:56:00.673Z,53.09
2024-03-02T15:58:27.503Z,53.94
2024-03-02T16:00:54.210Z,55.07
2024-03-02T16:03:21.142Z,55.01
2024-03-02T16:05:47.823Z,55.17
2024-03-02T16:08:14.335Z,55.08
2024-03-02T16:10:41.205Z,55.18
2024-03-02T16:13:07.853Z,55.74
2024-03-02T16:15:35.288Z,56.09
2024-03-02T16:18:03.086Z,56.84
2024-03-02T16:20:30.114Z,56.91
2024-03-02T16:22:56.755Z,56.90
2024-03-02T16:25:26.102Z,57.78
2024-03-02T16:27:53.870Z,58.05
2024-03-02T16:30:25.808Z,58.10
2024-03-02T16:32:52.576Z,58.72
2024-03-02T16:35:32.040Z,59.08
2024-03-02T16:37:58.686Z,59.48
2024-03-02T16:43:10.633Z,60.30
2024-03-02T16:45:37.361Z,60.56
2024-03-02T16:48:06.100Z,60.79
2024-03-02T16:50:33.825Z,61.35
2024-03-02T16:53:00.876Z,61.32
2024-03-02T16:55:27.530Z,61.76
2024-03-02T16:57:54.229Z,62.11
2024-03-02T17:00:21.014Z,62.40
2024-03-02T17:02:48.327Z,62.64
2024-03-02T17:05:15.022Z,62.32
2024-03-02T17:07:41.936Z,62.32
2024-03-02T17:10:09.006Z,62.30
2024-03-02T17:12:36.443Z,62.48
2024-03-02T17:15:03.543Z,62.13
2024-03-02T17:17:30.334Z,63.00
2024-03-02T17:19:56.887Z,62.64
2024-03-02T17:22:25.022Z,62.55
2024-03-02T17:24:53.331Z,62.84
2024-03-02T17:27:20.284Z,62.50
2024-03-02T17:29:48.620Z,63.01
2024-03-02T17:32:15.257Z,63.29
2024-03-02T17:34:42.094Z,63.02
2024-03-02T17:37:08.740Z,62.97
2024-03-02T17:39:35.328Z,63.74
2024-03-02T17:42:02.028Z,63.81
2024-03-02T17:44:28.571Z,64.17
2024-03-02T17:46:58.131Z,64.31
2024-03-02T17:49:25.840Z,63.94
2024-03-02T17:51:52.585Z,64.65
2024-03-02T17:54:19.169Z,64.85
2024-03-02T17:56:45.785Z,64.80
2024-03-02T17:59:12.289Z,64.75
2024-03-02T18:01:38.866Z,64.70
2024-03-02T18:04:09.773Z,64.91
2024-03-02T18:06:37.330Z,65.38
2024-03-02T18:09:04.327Z,65.93
2024-03-02T18:11:31.084Z,66.10
2024-03-02T18:13:57.656Z,66.19
2024-03-02T18:16:26.395Z,66.54
2024-03-02T18:18:53.096Z,66.54
2024-03-02T18:21:19.801Z,67.09
2024-03-02T18:23:47.738Z,67.47
2024-03-02T18:26:14.639Z,66.31
2024-03-02T18:28:42.235Z,67.14
2024-03-02T18:31:08.864Z,67.00
2024-03-02T18:33:35.955Z,67.31
2024-03-02T18:36:02.752Z,67.69
2024-03-02T18:38:29.448Z,67.99
2024-03-02T18:40:55.971Z,68.50
2024-03-02T18:43:22.475Z,68.71
2024-03-02T18:45:49.455Z,69.27
2024-03-02T18:48:16.457Z,68.70
2024-03-02T18:50:43.316Z,68.94
2024-03-02T18:53:13.902Z,69.76
2024-03-02T18:55:41.140Z,69.81
2024-03-02T18:58:08.396Z,69.22
2024-03-02T19:00:35.172Z,69.02
2024-03-02T19:03:02.001Z,69.67
2024-03-02T19:05:28.708Z,69.73
2024-03-02T19:07:55.259Z,70.55
2024-03-02T19:10:21.688Z,70.54
2024-03-02T19:12:49.033Z,70.82
2024-03-02T19:15:15.692Z,71.03
2024-03-02T19:17:42.310Z,71.49
2024-03-02T19:20:12.079Z,71.35
2024-03-02T19:25:05.775Z,71.81
2024-03-02T19:27:32.309Z,72.35
2024-03-02T19:29:58.862Z,72.30
2024-03-02T19:32:25.314Z,72.52
2024-03-02T19:34:51.857Z,72.25
2024-03-02T19:37:18.545Z,72.35
2024-03-02T19:39:45.079Z,72.52
2024-03-02T19:42:11.656Z,73.10
2024-03-02T19:44:38.244Z,72.92
2024-03-02T19:47:04.766Z,72.98
2024-03-02T19:49:37.743Z,72.91
2024-03-02T19:53:07.176Z,72.82
2024-03-02T19:56:25.320Z,72.34
2024-03-02T19:59:54.182Z,72.37
2024-03-02T20:06:39.165Z,71.79
2024-03-02T20:10:08.242Z,71.70
2024-03-02T20:12:52.209Z,71.91
2024-03-02T20:20:07.239Z,73.56
2024-03-02T20:23:37.204Z,73.48
2024-03-02T20:26:06.095Z,73.70
2024-03-02T20:28:32.788Z,74.06
2024-03-02T20:30:59.399Z,73.99
2024-03-02T20:33:26.332Z,74.20
2024-03-02T20:35:52.824Z,74.20
2024-03-02T20:38:19.353Z,74.43
2024-03-02T20:40:47.783Z,74.65
2024-03-02T20:43:15.740Z,74.52
2024-03-02T20:45:44.542Z,74.73
2024-03-02T20:48:11.616Z,74.78
2024-03-02T20:50:38.116Z,74.81
2024-03-02T20:53:08.124Z,74.80
2024-03-02T20:55:35.974Z,75.01
2024-03-02T20:58:02.864Z,75.32
2024-03-02T21:00:29.406Z,74.92
2024-03-02T21:02:56.048Z,74.92
2024-03-02T21:05:22.622Z,74.80
2024-03-02T21:07:50.595Z,75.11
2024-03-02T21:10:17.337Z,75.56
2024-03-02T21:12:44.132Z,75.36
2024-03-02T21:15:11.161Z,75.49
2024-03-02T21:17:37.890Z,75.54
2024-03-02T21:20:07.809Z,75.61
2024-03-02T21:22:34.363Z,75.58
2024-03-02T21:25:03.355Z,75.69
2024-03-02T21:27:29.881Z,75.90
2024-03-02T21:29:56.413Z,76.29
2024-03-02T21:32:22.848Z,76.36
2024-03-02T21:34:49.470Z,76.66
2024-03-02T21:37:16.137Z,76.57
2024-03-02T21:39:46.989Z,76.64
2024-03-02T21:42:14.151Z,76.24
2024-03-02T21:44:40.688Z,76.28
2024-03-02T21:47:07.685Z,76.59
2024-03-02T21:49:34.577Z,76.66
2024-03-02T21:53:04.203Z,76.49
2024-03-02T22:15:04.099Z,76.95
2024-03-02T22:17:30.684Z,76.92
2024-03-02T22:19:58.310Z,77.20
2024-03-02T22:22:24.948Z,76.98
2024-03-02T22:24:51.487Z,76.83
2024-03-02T22:27:18.029Z,77.13
2024-03-02T22:29:44.504Z,77.05
2024-03-02T22:32:11.004Z,76.97
2024-03-02T22:34:37.515Z,77.26
2024-03-02T22:37:04.217Z,77.34
2024-03-02T22:39:30.735Z,77.40
2024-03-02T22:41:57.242Z,77.75
2024-03-02T22:44:23.730Z,77.28
2024-03-02T22:46:50.271Z,77.15
2024-03-02T22:49:17.055Z,77.40
2024-03-02T22:51:43.589Z,77.57
2024-03-02T22:54:10.075Z,77.72
2024-03-02T22:56:36.517Z,77.53
2024-03-02T22:59:03.384Z,77.61
2024-03-02T23:01:30.238Z,77.58
2024-03-02T23:03:56.813Z,77.45
2024-03-02T23:06:24.102Z,77.84
2024-03-02T23:08:50.547Z,77.77
2024-03-02T23:11:17.222Z,77.72
2024-03-02T23:13:43.747Z,77.93
2024-03-02T23:16:10.286Z,78.13
2024-03-02T23:18:36.843Z,78.05
2024-03-02T23:21:04.181Z,78.18
2024-03-02T23:23:30.588Z,78.13
2024-03-02T23:25:57.115Z,78.34
2024-03-02T23:28:23.610Z,78.27
2024-03-02T23:30:50.232Z,78.57
2024-03-02T23:33:16.788Z,78.72
2024-03-02T23:35:43.370Z,78.83
2024-03-02T23:38:09.900Z,78.52
2024-03-02T23:41:08.537Z,78.36
2024-03-02T23:43:36.697Z,78.70
2024-03-02T23:46:04.630Z,78.55
2024-03-02T23:48:31.159Z,78.59
2024-03-02T23:50:57.610Z,78.54
2024-03-02T23:53:24.122Z,78.76
2024-03-02T23:55:52.865Z,78.76
2024-03-02T23:58:20.498Z,78.64
